createdAt,value
2023-03-18T00:00:02.014Z,99937.91
2023-03-18T00:01:05.106Z,99930.47
2023-03-18T00:02:08.129Z,99932.28
2023-03-18T00:03:10.667Z,99939.88
2023-03-18T00:04:14.734Z,99935.78
2023-03-18T00:05:16.326Z,99932.88
2023-03-18T00:06:21.906Z,99934.63
2023-03-18T00:07:23.480Z,99935.00
2023-03-18T00:08:26.145Z,99936.53
2023-03-18T00:09:27.604Z,99926.94
2023-03-18T00:10:30.634Z,99933.50
2023-03-18T00:11:32.255Z,99922.94
2023-03-18T00:12:35.017Z,99931.56
2023-03-18T00:13:37.511Z,99933.16
2023-03-18T00:14:40.053Z,99930.72
2023-03-18T00:15:41.727Z,99934.31
2023-03-18T00:16:44.435Z,99936.44
2023-03-18T00:17:46.696Z,99939.53
2023-03-18T00:18:49.702Z,99935.97
2023-03-18T00:19:52.650Z,99938.78
2023-03-18T00:20:55.393Z,99932.03
2023-03-18T00:21:57.591Z,99939.38
2023-03-18T00:23:00.215Z,99937.69
2023-03-18T00:24:01.772Z,99938.38
2023-03-18T00:25:05.699Z,99930.75
2023-03-18T00:26:08.964Z,99938.09
2023-03-18T00:27:11.508Z,99941.63
2023-03-18T00:28:13.749Z,99934.78
2023-03-18T00:29:16.434Z,99929.41
2023-03-18T00:30:18.552Z,99930.47
2023-03-18T00:31:21.231Z,99932.94
2023-03-18T00:32:23.242Z,99926.44
2023-03-18T00:33:25.941Z,99933.53
2023-03-18T00:34:27.968Z,99936.25
2023-03-18T00:35:32.387Z,99939.50
2023-03-18T00:36:34.646Z,99924.78
2023-03-18T00:37:37.577Z,99935.13
2023-03-18T00:38:41.121Z,99933.78
2023-03-18T00:39:44.341Z,99931.66
2023-03-18T00:40:53.647Z,99934.06
2023-03-18T00:41:57.983Z,99923.69
2023-03-18T00:43:08.166Z,99931.59
2023-03-18T00:44:11.403Z,99933.97
2023-03-18T00:45:14.292Z,99941.56
2023-03-18T00:46:18.880Z,99937.75
2023-03-18T00:47:21.310Z,99940.56
2023-03-18T00:48:24.327Z,99937.06
2023-03-18T00:49:26.419Z,99939.25
2023-03-18T00:50:29.284Z,99938.13
2023-03-18T00:51:34.180Z,99931.91
2023-03-18T00:52:37.380Z,99931.91
2023-03-18T00:53:38.941Z,99940.63
2023-03-18T00:54:41.951Z,99931.94
2023-03-18T00:55:43.976Z,99934.06
2023-03-18T00:56:47.141Z,99923.16
2023-03-18T00:57:48.886Z,99935.00
2023-03-18T00:58:52.593Z,99928.53
2023-03-18T00:59:54.196Z,99935.53
2023-03-18T01:00:57.097Z,99931.06
2023-03-18T01:01:58.692Z,99930.75
2023-03-18T01:03:01.470Z,99927.78
2023-03-18T01:04:04.405Z,99930.94
2023-03-18T01:05:07.358Z,99927.34
2023-03-18T01:06:10.546Z,99922.75
2023-03-18T01:07:15.426Z,99919.59
2023-03-18T01:08:17.374Z,99920.78
2023-03-18T01:09:19.836Z,99914.41
2023-03-18T01:10:21.371Z,99920.09
2023-03-18T01:11:24.682Z,99919.44
2023-03-18T01:12:26.178Z,99923.75
2023-03-18T01:13:28.739Z,99915.41
2023-03-18T01:14:30.284Z,99926.81
2023-03-18T01:15:32.835Z,99917.06
2023-03-18T01:16:34.371Z,99924.97
2023-03-18T01:17:37.489Z,99925.16
2023-03-18T01:18:39.390Z,99922.47
2023-03-18T01:19:42.408Z,99926.47
2023-03-18T01:20:44.612Z,99917.19
2023-03-18T01:21:47.230Z,99916.44
2023-03-18T01:22:50.256Z,99917.56
2023-03-18T01:23:53.377Z,99912.19
2023-03-18T01:24:55.491Z,99920.66
2023-03-18T01:25:59.021Z,99921.69
2023-03-18T01:27:00.623Z,99927.50
2023-03-18T01:28:03.173Z,99918.81
2023-03-18T01:29:05.599Z,99918.84
2023-03-18T01:30:09.960Z,99920.78
2023-03-18T01:31:12.925Z,99915.41
2023-03-18T01:32:16.076Z,99913.81
2023-03-18T01:33:17.838Z,99915.59
2023-03-18T01:34:21.584Z,99910.06
2023-03-18T01:35:24.133Z,99920.00
2023-03-18T01:36:26.684Z,99927.31
2023-03-18T01:37:29.005Z,99927.44
2023-03-18T01:38:33.454Z,99922.94
2023-03-18T01:39:35.693Z,99919.63
2023-03-18T01:40:40.482Z,99920.31
2023-03-18T01:41:42.294Z,99922.66
2023-03-18T01:42:49.634Z,99919.78
2023-03-18T01:43:51.873Z,99923.41
2023-03-18T01:45:16.196Z,99923.13
2023-03-18T01:46:36.356Z,99922.69
2023-03-18T01:47:38.881Z,99923.91
2023-03-18T01:48:40.716Z,99924.91
2023-03-18T01:49:48.357Z,99926.34
2023-03-18T01:50:59.372Z,99921.34
2023-03-18T01:52:07.657Z,99922.63
2023-03-18T01:53:12.458Z,99918.38
2023-03-18T01:54:18.697Z,99915.78
2023-03-18T01:55:30.553Z,99919.56
2023-03-18T01:56:36.302Z,99913.72
2023-03-18T01:57:38.339Z,99913.31
2023-03-18T01:58:43.296Z,99913.06
2023-03-18T01:59:47.232Z,99911.56
2023-03-18T02:00:54.475Z,99919.81
2023-03-18T02:02:01.985Z,99920.31
2023-03-18T02:03:06.159Z,99917.38
2023-03-18T02:04:10.447Z,99922.69
2023-03-18T02:05:18.963Z,99913.84
2023-03-18T02:06:20.615Z,99922.38
2023-03-18T02:07:28.611Z,99922.38
2023-03-18T02:08:30.166Z,99923.13
2023-03-18T02:09:34.133Z,99931.97
2023-03-18T02:10:37.383Z,99928.34
2023-03-18T02:11:43.616Z,99929.84
2023-03-18T02:12:49.816Z,99929.84
2023-03-18T02:13:52.486Z,99921.34
2023-03-18T02:14:54.453Z,99919.31
2023-03-18T02:16:04.828Z,99925.69
2023-03-18T02:17:11.043Z,99919.81
2023-03-18T02:18:19.445Z,99927.31
2023-03-18T02:19:33.677Z,99923.63
2023-03-18T02:20:50.607Z,99927.91
2023-03-18T02:21:58.854Z,99928.56
2023-03-18T02:23:09.932Z,99924.75
2023-03-18T02:24:22.368Z,99928.41
2023-03-18T02:25:37.901Z,99929.09
2023-03-18T02:26:44.403Z,99927.94
2023-03-18T02:27:52.380Z,99927.78
2023-03-18T02:28:59.554Z,99927.31
2023-03-18T02:30:05.614Z,99934.19
2023-03-18T02:31:13.929Z,99929.59
2023-03-18T02:32:17.619Z,99929.44
2023-03-18T02:33:23.397Z,99940.31
2023-03-18T02:34:25.849Z,99929.72
2023-03-18T02:35:30.526Z,99933.56
2023-03-18T02:36:34.012Z,99932.97
2023-03-18T02:37:36.855Z,99933.78
2023-03-18T02:38:41.716Z,99928.88
2023-03-18T02:39:44.155Z,99931.75
2023-03-18T02:40:45.691Z,99932.28
2023-03-18T02:41:48.491Z,99934.47
2023-03-18T02:42:52.383Z,99943.66
2023-03-18T02:43:55.300Z,99938.41
2023-03-18T02:44:57.833Z,99946.91
2023-03-18T02:46:14.657Z,99947.91
2023-03-18T02:47:21.083Z,99940.19
2023-03-18T02:48:27.177Z,99940.19
2023-03-18T02:49:29.017Z,99941.66
2023-03-18T02:50:31.808Z,99949.00
2023-03-18T02:51:35.544Z,99949.25
2023-03-18T02:52:38.894Z,99941.88
2023-03-18T02:53:41.810Z,99955.09
2023-03-18T02:54:44.345Z,99948.59
2023-03-18T02:55:46.565Z,99955.50
2023-03-18T02:56:49.129Z,99957.97
2023-03-18T02:57:51.955Z,99962.28
2023-03-18T02:58:54.449Z,99956.44
2023-03-18T02:59:56.243Z,99970.88
2023-03-18T03:00:59.111Z,99967.63
2023-03-18T03:02:01.661Z,99972.75
2023-03-18T03:03:05.322Z,99970.13
2023-03-18T03:04:07.587Z,99972.22
2023-03-18T03:05:10.627Z,99974.09
2023-03-18T03:06:12.620Z,99976.31
2023-03-18T03:07:15.044Z,99973.69
2023-03-18T03:08:16.571Z,99983.56
2023-03-18T03:09:19.898Z,99978.03
2023-03-18T03:10:21.553Z,99987.75
2023-03-18T03:11:24.181Z,99982.47
2023-03-18T03:12:25.813Z,99986.91
2023-03-18T03:13:29.753Z,99978.66
2023-03-18T03:14:31.291Z,99977.84
2023-03-18T03:15:34.105Z,99971.03
2023-03-18T03:16:36.180Z,99977.69
2023-03-18T03:17:39.574Z,99970.53
2023-03-18T03:18:42.077Z,99979.41
2023-03-18T03:19:44.748Z,99976.66
2023-03-18T03:20:46.689Z,99977.63
2023-03-18T03:21:49.273Z,99980.44
2023-03-18T03:22:51.077Z,99983.59
2023-03-18T03:23:54.698Z,99978.66
2023-03-18T03:24:56.207Z,99981.38
2023-03-18T03:25:59.115Z,99984.81
2023-03-18T03:27:01.062Z,99980.44
2023-03-18T03:28:03.969Z,99983.97
2023-03-18T03:29:07.882Z,99990.69
2023-03-18T03:30:12.220Z,99983.97
2023-03-18T03:31:15.671Z,99981.84
2023-03-18T03:32:17.185Z,99989.69
2023-03-18T03:33:19.739Z,99988.16
2023-03-18T03:34:21.314Z,99989.50
2023-03-18T03:35:25.107Z,99996.00
2023-03-18T03:36:26.831Z,99980.50
2023-03-18T03:37:29.611Z,99989.56
2023-03-18T03:38:31.201Z,99989.41
2023-03-18T03:39:33.958Z,99992.00
2023-03-18T03:40:35.546Z,99994.88
2023-03-18T03:41:38.058Z,99990.59
2023-03-18T03:42:40.340Z,99986.41
2023-03-18T03:43:43.418Z,99984.81
2023-03-18T03:44:46.396Z,99988.28
2023-03-18T03:45:49.036Z,99982.25
2023-03-18T03:46:51.029Z,99979.91
2023-03-18T03:47:53.920Z,99988.38
2023-03-18T03:48:55.685Z,99997.69
2023-03-18T03:49:58.223Z,99991.31
2023-03-18T03:50:59.895Z,99994.06
2023-03-18T03:52:02.811Z,99986.41
2023-03-18T03:53:04.938Z,99988.63
2023-03-18T03:54:07.536Z,99991.31
2023-03-18T03:55:12.694Z,99986.09
2023-03-18T03:56:15.763Z,99986.94
2023-03-18T03:57:17.778Z,99991.75
2023-03-18T03:58:20.416Z,99989.78
2023-03-18T03:59:21.969Z,99991.22
2023-03-18T04:00:26.228Z,100002.09
2023-03-18T04:01:28.199Z,99988.97
2023-03-18T04:02:30.739Z,99987.75
2023-03-18T04:03:32.522Z,99998.00
2023-03-18T04:04:35.094Z,99998.47
2023-03-18T04:05:37.500Z,99981.47
2023-03-18T04:06:40.033Z,99990.31
2023-03-18T04:07:42.110Z,99991.31
2023-03-18T04:08:44.608Z,99996.41
2023-03-18T04:09:46.696Z,99984.81
2023-03-18T04:10:49.205Z,99993.72
2023-03-18T04:11:50.803Z,99987.75
2023-03-18T04:12:53.298Z,99999.41
2023-03-18T04:13:54.797Z,99995.53
2023-03-18T04:14:57.406Z,99994.44
2023-03-18T04:16:01.481Z,100000.81
2023-03-18T04:17:03.115Z,100007.97
2023-03-18T04:18:07.537Z,100000.44
2023-03-18T04:19:10.304Z,100001.03
2023-03-18T04:20:14.093Z,99998.78
2023-03-18T04:21:16.358Z,100004.13
2023-03-18T04:22:19.400Z,100005.34
2023-03-18T04:23:20.982Z,99999.69
2023-03-18T04:24:24.080Z,100003.41
2023-03-18T04:25:26.466Z,100004.94
2023-03-18T04:26:29.166Z,100002.44
2023-03-18T04:27:30.880Z,100002.22
2023-03-18T04:28:34.082Z,100005.19
2023-03-18T04:29:35.838Z,100000.47
2023-03-18T04:30:38.369Z,99999.53
2023-03-18T04:31:41.706Z,100004.75
2023-03-18T04:32:44.304Z,100000.03
2023-03-18T04:33:45.887Z,99993.19
2023-03-18T04:34:48.495Z,99998.38
2023-03-18T04:35:52.724Z,99992.31
2023-03-18T04:36:55.513Z,99996.78
2023-03-18T04:37:57.054Z,99995.53
2023-03-18T04:38:59.961Z,100001.38
2023-03-18T04:40:01.613Z,100000.38
2023-03-18T04:41:04.100Z,99996.44
2023-03-18T04:42:05.797Z,100005.66
2023-03-18T04:43:09.941Z,99993.63
2023-03-18T04:44:11.830Z,99994.59
2023-03-18T04:45:15.542Z,99997.44
2023-03-18T04:46:17.190Z,100000.63
2023-03-18T04:47:21.013Z,100002.31
2023-03-18T04:48:22.505Z,100003.09
2023-03-18T04:49:25.316Z,100002.09
2023-03-18T04:50:27.859Z,100002.94
2023-03-18T04:51:30.356Z,100002.16
2023-03-18T04:52:31.930Z,100011.38
2023-03-18T04:53:34.394Z,100013.69
2023-03-18T04:54:37.299Z,100012.91
2023-03-18T04:55:40.760Z,100014.13
2023-03-18T04:56:43.660Z,100007.38
2023-03-18T04:57:46.181Z,100013.16
2023-03-18T04:58:47.750Z,100015.78
2023-03-18T04:59:50.410Z,100011.00
2023-03-18T05:00:52.589Z,100021.91
2023-03-18T05:01:55.147Z,100014.00
2023-03-18T05:02:58.148Z,100012.19
2023-03-18T05:04:00.691Z,100013.69
2023-03-18T05:05:02.527Z,100014.59
2023-03-18T05:06:06.140Z,100026.78
2023-03-18T05:07:08.613Z,100026.09
2023-03-18T05:08:11.416Z,100022.00
2023-03-18T05:09:13.334Z,100019.53
2023-03-18T05:10:16.451Z,100028.88
2023-03-18T05:11:18.773Z,100019.84
2023-03-18T05:12:21.414Z,100020.38
2023-03-18T05:13:24.070Z,100017.25
2023-03-18T05:14:27.016Z,100021.31
2023-03-18T05:15:28.795Z,100020.50
2023-03-18T05:16:31.402Z,100020.34
2023-03-18T05:17:33.073Z,100017.41
2023-03-18T05:18:37.245Z,100018.94
2023-03-18T05:19:38.757Z,100022.94
2023-03-18T05:20:41.793Z,100016.25
2023-03-18T05:21:43.306Z,100014.69
2023-03-18T05:22:45.934Z,100019.69
2023-03-18T05:23:47.568Z,100008.41
2023-03-18T05:24:50.294Z,100007.75
2023-03-18T05:25:52.342Z,100005.81
2023-03-18T05:26:55.491Z,100008.78
2023-03-18T05:27:57.898Z,100004.63
2023-03-18T05:29:00.427Z,100008.69
2023-03-18T05:30:02.244Z,100004.34
2023-03-18T05:31:05.147Z,100010.19
2023-03-18T05:32:07.604Z,100005.84
2023-03-18T05:33:10.336Z,100002.66
2023-03-18T05:34:13.467Z,100012.84
2023-03-18T05:35:16.178Z,100012.38
2023-03-18T05:36:17.674Z,100017.34
2023-03-18T05:37:20.216Z,100012.88
2023-03-18T05:38:22.333Z,100017.13
2023-03-18T05:39:25.253Z,100014.13
2023-03-18T05:40:26.811Z,100014.50
2023-03-18T05:41:29.376Z,100015.25
2023-03-18T05:42:30.955Z,100022.72
2023-03-18T05:43:33.696Z,100021.22
2023-03-18T05:44:35.386Z,100025.28
2023-03-18T05:45:40.211Z,100018.59
2023-03-18T05:46:43.273Z,100019.53
2023-03-18T05:47:44.793Z,100012.63
2023-03-18T05:48:47.272Z,100021.50
2023-03-18T05:49:50.472Z,100020.78
2023-03-18T05:50:52.979Z,100021.34
2023-03-18T05:51:55.123Z,100018.53
2023-03-18T05:52:58.028Z,100017.41
2023-03-18T05:53:59.704Z,100021.06
2023-03-18T05:55:02.540Z,100015.81
2023-03-18T05:56:04.683Z,100019.66
2023-03-18T05:57:07.415Z,100016.88
2023-03-18T05:58:09.401Z,100009.66
2023-03-18T05:59:12.548Z,100013.34
2023-03-18T06:00:15.491Z,100013.44
2023-03-18T06:01:17.935Z,100016.25
2023-03-18T06:02:20.516Z,100019.63
2023-03-18T06:03:22.512Z,100018.66
2023-03-18T06:04:27.067Z,100018.00
2023-03-18T06:05:31.182Z,100028.91
2023-03-18T06:06:35.900Z,100028.38
2023-03-18T06:07:37.625Z,100021.88
2023-03-18T06:08:41.192Z,100018.91
2023-03-18T06:09:43.273Z,100024.69
2023-03-18T06:10:45.866Z,100034.00
2023-03-18T06:11:47.448Z,100030.09
2023-03-18T06:12:50.545Z,100036.03
2023-03-18T06:13:52.256Z,100036.00
2023-03-18T06:14:54.978Z,100034.50
2023-03-18T06:15:57.195Z,100042.00
2023-03-18T06:17:00.210Z,100042.56
2023-03-18T06:18:01.774Z,100037.63
2023-03-18T06:19:05.871Z,100040.59
2023-03-18T06:20:09.470Z,100034.47
2023-03-18T06:21:13.309Z,100041.19
2023-03-18T06:22:17.003Z,100036.03
2023-03-18T06:23:19.652Z,100034.16
2023-03-18T06:24:21.207Z,100034.06
2023-03-18T06:25:24.552Z,100040.03
2023-03-18T06:26:26.660Z,100035.06
2023-03-18T06:27:29.133Z,100045.47
2023-03-18T06:28:30.913Z,100036.59
2023-03-18T06:29:33.681Z,100036.72
2023-03-18T06:30:35.611Z,100035.53
2023-03-18T06:31:38.184Z,100041.91
2023-03-18T06:32:40.560Z,100040.69
2023-03-18T06:33:43.143Z,100040.97
2023-03-18T06:34:45.493Z,100038.16
2023-03-18T06:35:49.428Z,100041.47
2023-03-18T06:36:52.399Z,100037.44
2023-03-18T06:37:55.601Z,100041.00
2023-03-18T06:38:57.580Z,100044.63
2023-03-18T06:40:00.267Z,100046.56
2023-03-18T06:41:03.128Z,100040.34
2023-03-18T06:42:04.901Z,100037.44
2023-03-18T06:43:07.400Z,100041.25
2023-03-18T06:44:09.200Z,100035.25
2023-03-18T06:45:12.896Z,100037.63
2023-03-18T06:46:14.682Z,100035.09
2023-03-18T06:47:18.325Z,100034.72
2023-03-18T06:48:20.112Z,100052.91
2023-03-18T06:49:22.565Z,100044.63
2023-03-18T06:50:25.307Z,100040.78
2023-03-18T06:51:26.891Z,100041.69
2023-03-18T06:52:31.061Z,100049.03
2023-03-18T06:53:33.315Z,100044.41
2023-03-18T06:54:35.777Z,100049.63
2023-03-18T06:55:37.995Z,100048.31
2023-03-18T06:56:42.922Z,100056.63
2023-03-18T06:57:46.757Z,100050.06
2023-03-18T06:58:49.347Z,100050.97
2023-03-18T06:59:51.083Z,100057.81
2023-03-18T07:00:54.011Z,100050.41
2023-03-18T07:01:55.813Z,100051.50
2023-03-18T07:02:58.486Z,100054.44
2023-03-18T07:04:00.688Z,100057.63
2023-03-18T07:05:04.392Z,100051.66
2023-03-18T07:06:07.841Z,100051.75
2023-03-18T07:07:10.801Z,100042.84
2023-03-18T07:08:15.546Z,100048.78
2023-03-18T07:09:18.741Z,100053.44
2023-03-18T07:10:22.882Z,100060.47
2023-03-18T07:11:26.883Z,100061.63
2023-03-18T07:12:28.578Z,100058.44
2023-03-18T07:13:31.048Z,100064.75
2023-03-18T07:14:32.589Z,100060.06
2023-03-18T07:15:35.460Z,100054.50
2023-03-18T07:16:37.200Z,100050.84
2023-03-18T07:17:39.716Z,100054.19
2023-03-18T07:18:42.669Z,100058.34
2023-03-18T07:19:45.437Z,100064.75
2023-03-18T07:20:46.996Z,100060.69
2023-03-18T07:21:49.666Z,100066.94
2023-03-18T07:22:51.498Z,100065.34
2023-03-18T07:23:56.079Z,100065.44
2023-03-18T07:24:57.653Z,100071.34
2023-03-18T07:26:00.163Z,100075.78
2023-03-18T07:27:01.725Z,100078.00
2023-03-18T07:28:04.989Z,100075.47
2023-03-18T07:29:06.853Z,100081.16
2023-03-18T07:30:10.422Z,100086.66
2023-03-18T07:31:12.025Z,100079.53
2023-03-18T07:32:14.763Z,100084.63
2023-03-18T07:33:16.291Z,100090.38
2023-03-18T07:34:19.273Z,100095.84
2023-03-18T07:35:21.955Z,100091.78
2023-03-18T07:36:25.134Z,100092.13
2023-03-18T07:37:27.506Z,100091.19
2023-03-18T07:38:30.732Z,100090.97
2023-03-18T07:39:33.886Z,100102.72
2023-03-18T07:40:37.018Z,100106.25
2023-03-18T07:41:38.505Z,100107.94
2023-03-18T07:42:41.252Z,100102.03
2023-03-18T07:43:43.614Z,100107.09
2023-03-18T07:44:46.173Z,100104.53
2023-03-18T07:45:47.775Z,100106.47
2023-03-18T07:46:50.615Z,100102.25
2023-03-18T07:47:53.389Z,100106.19
2023-03-18T07:48:57.128Z,100109.19
2023-03-18T07:49:59.383Z,100115.50
2023-03-18T07:51:02.822Z,100111.91
2023-03-18T07:52:04.783Z,100103.09
2023-03-18T07:53:07.821Z,100102.66
2023-03-18T07:54:09.348Z,100109.41
2023-03-18T07:55:13.319Z,100101.56
2023-03-18T07:56:14.823Z,100111.47
2023-03-18T07:57:17.370Z,100114.38
2023-03-18T07:58:18.949Z,100111.03
2023-03-18T07:59:21.792Z,100113.13
2023-03-18T08:00:23.514Z,100115.09
2023-03-18T08:01:26.528Z,100118.72
2023-03-18T08:02:28.718Z,100116.47
2023-03-18T08:03:31.259Z,100124.91
2023-03-18T08:04:32.936Z,100119.75
2023-03-18T08:05:35.566Z,100123.78
2023-03-18T08:06:37.887Z,100115.16
2023-03-18T08:07:40.594Z,100111.59
2023-03-18T08:08:42.983Z,100119.56
2023-03-18T08:09:45.904Z,100116.03
2023-03-18T08:10:48.798Z,100128.56
2023-03-18T08:11:51.668Z,100124.25
2023-03-18T08:12:54.226Z,100132.13
2023-03-18T08:13:57.089Z,100126.03
2023-03-18T08:14:59.922Z,100122.66
2023-03-18T08:16:02.593Z,100127.34
2023-03-18T08:17:04.140Z,100128.94
2023-03-18T08:18:09.344Z,100126.09
2023-03-18T08:19:11.227Z,100123.53
2023-03-18T08:20:15.275Z,100128.09
2023-03-18T08:21:17.763Z,100126.47
2023-03-18T08:22:19.379Z,100115.50
2023-03-18T08:23:22.442Z,100133.19
2023-03-18T08:24:24.531Z,100129.34
2023-03-18T08:25:27.362Z,100124.75
2023-03-18T08:26:30.315Z,100135.22
2023-03-18T08:27:33.107Z,100138.97
2023-03-18T08:28:35.177Z,100130.53
2023-03-18T08:29:37.988Z,100133.03
2023-03-18T08:30:39.760Z,100134.06
2023-03-18T08:31:42.956Z,100131.63
2023-03-18T08:32:44.671Z,100128.66
2023-03-18T08:33:47.545Z,100146.06
2023-03-18T08:34:49.161Z,100129.81
2023-03-18T08:35:52.111Z,100134.47
2023-03-18T08:36:53.796Z,100148.81
2023-03-18T08:37:57.144Z,100147.69
2023-03-18T08:38:58.742Z,100141.16
2023-03-18T08:40:02.069Z,100140.09
2023-03-18T08:41:04.050Z,100130.34
2023-03-18T08:42:08.257Z,100139.34
2023-03-18T08:43:09.979Z,100130.94
2023-03-18T08:44:12.615Z,100133.78
2023-03-18T08:45:14.508Z,100132.94
2023-03-18T08:46:17.888Z,100131.16
2023-03-18T08:47:20.064Z,100139.50
2023-03-18T08:48:24.160Z,100135.91
2023-03-18T08:49:25.722Z,100136.75
2023-03-18T08:50:29.835Z,100132.06
2023-03-18T08:51:32.634Z,100123.31
2023-03-18T08:52:35.545Z,100124.47
2023-03-18T08:53:37.722Z,100133.28
2023-03-18T08:54:40.502Z,100129.16
2023-03-18T08:55:42.215Z,100121.31
2023-03-18T08:56:45.030Z,100126.38
2023-03-18T08:57:48.089Z,100124.53
2023-03-18T08:58:51.168Z,100130.38
2023-03-18T08:59:53.325Z,100122.78
2023-03-18T09:00:56.710Z,100122.00
2023-03-18T09:01:59.873Z,100129.69
2023-03-18T09:03:01.869Z,100128.78
2023-03-18T09:04:04.543Z,100132.56
2023-03-18T09:05:06.848Z,100131.09
2023-03-18T09:06:09.729Z,100138.25
2023-03-18T09:07:14.753Z,100133.38
2023-03-18T09:08:17.256Z,100131.91
2023-03-18T09:09:18.873Z,100135.69
2023-03-18T09:10:21.560Z,100138.50
2023-03-18T09:11:23.830Z,100134.97
2023-03-18T09:12:26.536Z,100141.47
2023-03-18T09:13:29.404Z,100146.19
2023-03-18T09:14:34.516Z,100143.00
2023-03-18T09:15:36.344Z,100131.88
2023-03-18T09:16:38.991Z,100142.25
2023-03-18T09:17:56.628Z,100138.19
2023-03-18T09:19:03.438Z,100136.63
2023-03-18T09:20:05.720Z,100134.03
2023-03-18T09:21:08.461Z,100139.38
2023-03-18T09:22:10.402Z,100140.00
2023-03-18T09:23:15.614Z,100138.38
2023-03-18T09:24:17.741Z,100141.28
2023-03-18T09:25:20.699Z,100137.72
2023-03-18T09:26:22.448Z,100140.63
2023-03-18T09:27:25.295Z,100135.97
2023-03-18T09:28:29.164Z,100135.94
2023-03-18T09:29:33.049Z,100138.53
2023-03-18T09:30:35.267Z,100127.59
2023-03-18T09:31:38.667Z,100138.38
2023-03-18T09:32:41.040Z,100135.47
2023-03-18T09:33:43.829Z,100135.00
2023-03-18T09:34:46.385Z,100138.22
2023-03-18T09:35:50.692Z,100136.88
2023-03-18T09:36:52.540Z,100139.03
2023-03-18T09:37:55.573Z,100144.69
2023-03-18T09:38:58.055Z,100136.44
2023-03-18T09:40:00.522Z,100137.41
2023-03-18T09:41:08.931Z,100136.63
2023-03-18T09:42:28.604Z,100142.28
2023-03-18T09:43:46.149Z,100137.22
2023-03-18T09:44:55.577Z,100142.03
2023-03-18T09:46:06.901Z,100139.75
2023-03-18T09:47:28.734Z,100134.06
2023-03-18T09:48:56.774Z,100140.16
2023-03-18T09:50:13.276Z,100136.41
2023-03-18T09:51:28.422Z,100142.88
2023-03-18T09:52:33.889Z,100140.88
2023-03-18T09:53:44.082Z,100137.47
2023-03-18T09:54:54.348Z,100139.69
2023-03-18T09:56:00.918Z,100147.88
2023-03-18T09:57:04.744Z,100142.50
2023-03-18T09:58:16.394Z,100142.41
2023-03-18T09:59:21.558Z,100141.66
2023-03-18T10:00:30.019Z,100145.03
2023-03-18T10:01:35.666Z,100138.38
2023-03-18T10:02:43.281Z,100137.56
2023-03-18T10:03:50.303Z,100138.66
2023-03-18T10:04:57.484Z,100143.19
2023-03-18T10:06:04.414Z,100137.41
2023-03-18T10:07:14.326Z,100133.81
2023-03-18T10:08:23.007Z,100129.63
2023-03-18T10:09:29.946Z,100129.31
2023-03-18T10:10:37.311Z,100140.53
2023-03-18T10:11:43.806Z,100136.44
2023-03-18T10:12:50.790Z,100138.72
2023-03-18T10:14:14.107Z,100140.28
2023-03-18T10:15:18.807Z,100144.09
2023-03-18T10:16:27.463Z,100136.88
2023-03-18T10:17:32.618Z,100139.53
2023-03-18T10:18:38.017Z,100141.75
2023-03-18T10:19:46.490Z,100146.84
2023-03-18T10:21:00.242Z,100143.75
2023-03-18T10:22:22.159Z,100148.78
2023-03-18T10:23:36.592Z,100148.63
2023-03-18T10:24:47.956Z,100144.00
2023-03-18T10:25:54.884Z,100144.13
2023-03-18T10:27:08.757Z,100143.69
2023-03-18T10:28:41.609Z,100133.34
2023-03-18T10:29:49.389Z,100149.00
2023-03-18T10:31:02.766Z,100147.91
2023-03-18T10:32:17.154Z,100141.13
2023-03-18T10:33:27.913Z,100152.41
2023-03-18T10:34:34.764Z,100149.00
2023-03-18T10:35:42.293Z,100149.97
2023-03-18T10:36:51.587Z,100152.69
2023-03-18T10:37:57.778Z,100147.28
2023-03-18T10:39:04.943Z,100144.41
2023-03-18T10:40:14.943Z,100141.34
2023-03-18T10:41:24.947Z,100151.59
2023-03-18T10:42:32.842Z,100143.59
2023-03-18T10:43:35.736Z,100147.31
2023-03-18T10:44:41.668Z,100143.41
2023-03-18T10:45:44.351Z,100148.47
2023-03-18T10:46:48.703Z,100146.97
2023-03-18T10:48:00.708Z,100146.75
2023-03-18T10:49:08.454Z,100146.47
2023-03-18T10:50:17.486Z,100150.50
2023-03-18T10:51:24.600Z,100162.38
2023-03-18T10:52:33.802Z,100154.16
2023-03-18T10:53:43.860Z,100151.97
2023-03-18T10:54:50.314Z,100147.09
2023-03-18T10:56:00.436Z,100150.00
2023-03-18T10:57:03.016Z,100151.94
2023-03-18T10:58:14.966Z,100140.91
2023-03-18T10:59:19.729Z,100150.19
2023-03-18T11:00:28.977Z,100148.75
2023-03-18T11:01:31.908Z,100149.09
2023-03-18T11:02:36.398Z,100150.41
2023-03-18T11:03:45.623Z,100146.81
2023-03-18T11:04:50.608Z,100140.91
2023-03-18T11:05:54.575Z,100138.03
2023-03-18T11:06:59.645Z,100148.28
2023-03-18T11:08:04.841Z,100151.16
2023-03-18T11:09:09.446Z,100155.09
2023-03-18T11:10:15.267Z,100153.91
2023-03-18T11:11:22.840Z,100155.06
2023-03-18T11:12:28.500Z,100154.47
2023-03-18T11:13:30.202Z,100152.25
2023-03-18T11:14:33.907Z,100148.72
2023-03-18T11:15:38.410Z,100155.78
2023-03-18T11:16:42.787Z,100151.19
2023-03-18T11:17:49.769Z,100152.41
2023-03-18T11:18:54.717Z,100154.97
2023-03-18T11:20:05.797Z,100156.06
2023-03-18T11:21:13.217Z,100153.69
2023-03-18T11:22:22.342Z,100152.75
2023-03-18T11:23:46.155Z,100147.06
2023-03-18T11:25:02.529Z,100140.31
2023-03-18T11:26:09.765Z,100144.25
2023-03-18T11:27:36.591Z,100149.69
2023-03-18T11:28:41.853Z,100148.59
2023-03-18T11:29:47.005Z,100141.22
2023-03-18T11:30:52.991Z,100144.44
2023-03-18T11:31:58.348Z,100147.91
2023-03-18T11:33:07.071Z,100140.78
2023-03-18T11:34:10.139Z,100146.28
2023-03-18T11:35:21.044Z,100133.72
2023-03-18T11:36:24.174Z,100140.91
2023-03-18T11:37:34.868Z,100142.69
2023-03-18T11:38:37.478Z,100137.31
2023-03-18T11:39:41.474Z,100131.06
2023-03-18T11:40:43.838Z,100134.44
2023-03-18T11:41:46.418Z,100110.41
2023-03-18T11:42:48.866Z,100132.88
2023-03-18T11:44:01.663Z,100133.50
2023-03-18T11:45:19.722Z,100125.16
2023-03-18T11:46:24.909Z,100124.56
2023-03-18T11:47:30.230Z,100123.09
2023-03-18T11:48:37.002Z,100123.00
2023-03-18T11:49:39.927Z,100122.03
2023-03-18T11:50:54.512Z,100127.94
2023-03-18T11:52:19.800Z,100133.59
2023-03-18T11:53:29.675Z,100133.00
2023-03-18T11:54:47.401Z,100137.38
2023-03-18T11:55:53.572Z,100129.78
2023-03-18T11:56:57.430Z,100132.03
2023-03-18T11:58:31.368Z,100131.63
2023-03-18T11:59:52.461Z,100129.47
2023-03-18T12:01:00.503Z,100124.66
2023-03-18T12:02:25.091Z,100138.13
2023-03-18T12:03:53.601Z,100133.56
2023-03-18T12:05:21.232Z,100128.09
2023-03-18T12:06:24.939Z,100135.44
2023-03-18T12:07:43.421Z,100129.41
2023-03-18T12:09:03.273Z,100122.91
2023-03-18T12:10:19.735Z,100128.09
2023-03-18T12:11:34.911Z,100131.78
2023-03-18T12:12:53.522Z,100136.88
2023-03-18T12:14:03.976Z,100136.59
2023-03-18T12:15:16.637Z,100136.06
2023-03-18T12:16:36.403Z,100133.09
2023-03-18T12:17:50.224Z,100133.38
2023-03-18T12:19:17.569Z,100139.28
2023-03-18T12:20:40.382Z,100129.47
2023-03-18T12:21:56.374Z,100142.16
2023-03-18T12:23:10.679Z,100137.56
2023-03-18T12:24:38.222Z,100139.06